createdAt,value
2018-12-25T00:00:00.791Z,0.00
2018-12-25T00:01:00.798Z,0.00
2018-12-25T00:02:00.830Z,0.00
2018-12-25T00:03:00.838Z,0.00
2018-12-25T00:04:00.850Z,0.00
2018-12-25T00:05:00.901Z,0.00
2018-12-25T00:06:00.901Z,0.00
2018-12-25T00:07:00.895Z,0.00
2018-12-25T00:08:00.918Z,0.00
2018-12-25T00:09:00.922Z,0.00
2018-12-25T00:10:00.973Z,0.00
2018-12-25T00:11:00.960Z,0.00
2018-12-25T00:12:00.970Z,0.00
2018-12-25T00:13:00.988Z,0.00
2018-12-25T00:14:01.002Z,0.00
2018-12-25T00:15:01.026Z,0.00
2018-12-25T00:16:01.045Z,0.00
2018-12-25T00:17:01.058Z,0.00
2018-12-25T00:18:01.069Z,0.00
2018-12-25T00:19:06.094Z,0.00
2018-12-25T00:20:01.098Z,0.00
2018-12-25T00:21:01.122Z,0.00
2018-12-25T00:22:01.166Z,0.00
2018-12-25T00:23:01.146Z,0.00
2018-12-25T00:24:01.164Z,0.00
2018-12-25T00:25:01.185Z,0.00
2018-12-25T00:26:01.189Z,0.00
2018-12-25T00:27:01.215Z,0.00
2018-12-25T00:28:01.227Z,0.00
2018-12-25T00:29:01.237Z,0.00
2018-12-25T00:30:01.254Z,0.00
2018-12-25T00:31:01.275Z,0.00
2018-12-25T00:32:01.307Z,0.00
2018-12-25T00:33:01.299Z,0.00
2018-12-25T00:34:01.318Z,0.00
2018-12-25T00:35:01.334Z,0.00
2018-12-25T00:36:01.352Z,0.00
2018-12-25T00:37:01.368Z,0.00
2018-12-25T00:38:01.379Z,0.00
2018-12-25T00:39:01.397Z,0.00
2018-12-25T00:40:01.410Z,0.00
2018-12-25T00:41:01.465Z,0.00
2018-12-25T00:42:01.466Z,0.00
2018-12-25T00:43:01.473Z,0.00
2018-12-25T00:44:01.487Z,0.00
2018-12-25T00:45:01.492Z,0.00
2018-12-25T00:46:01.516Z,0.00
2018-12-25T00:47:01.657Z,0.00
2018-12-25T00:48:01.558Z,0.00
2018-12-25T00:49:01.559Z,0.00
2018-12-25T00:50:01.577Z,0.00
2018-12-25T00:51:01.589Z,0.00
2018-12-25T00:52:01.614Z,0.00
2018-12-25T00:53:01.618Z,0.00
2018-12-25T00:54:01.635Z,0.00
2018-12-25T00:55:01.650Z,0.00
2018-12-25T00:56:01.669Z,0.00
2018-12-25T00:57:01.682Z,0.00
2018-12-25T00:58:01.703Z,0.00
2018-12-25T00:59:01.732Z,0.00
2018-12-25T01:00:01.727Z,0.00
2018-12-25T01:01:01.778Z,0.00
2018-12-25T01:02:02.295Z,0.00
2018-12-25T01:03:01.789Z,0.00
2018-12-25T01:04:01.813Z,0.00
2018-12-25T01:05:01.815Z,0.00
2018-12-25T01:06:01.837Z,0.00
2018-12-25T01:07:01.856Z,0.00
2018-12-25T01:08:01.864Z,0.00
2018-12-25T01:09:01.879Z,0.00
2018-12-25T01:10:01.889Z,0.00
2018-12-25T01:11:01.916Z,0.00
2018-12-25T01:12:01.920Z,0.00
2018-12-25T01:13:01.935Z,0.00
2018-12-25T01:14:01.956Z,0.00
2018-12-25T01:15:01.967Z,0.00
2018-12-25T01:16:01.982Z,0.00
2018-12-25T01:17:02.002Z,0.00
2018-12-25T01:18:02.132Z,0.00
2018-12-25T01:19:02.035Z,0.00
2018-12-25T01:20:02.040Z,0.00
2018-12-25T01:21:02.058Z,0.00
2018-12-25T01:22:02.074Z,0.00
2018-12-25T01:23:02.104Z,0.00
2018-12-25T01:24:02.128Z,0.00
2018-12-25T01:25:02.127Z,0.00
2018-12-25T01:26:02.135Z,0.00
2018-12-25T01:27:02.165Z,0.00
2018-12-25T01:28:02.165Z,0.00
2018-12-25T01:29:02.185Z,0.00
2018-12-25T01:30:02.198Z,0.00
2018-12-25T01:31:02.217Z,0.00
2018-12-25T01:32:02.227Z,0.00
2018-12-25T01:33:02.241Z,0.00
2018-12-25T01:34:02.262Z,0.00
2018-12-25T01:35:02.275Z,0.00
2018-12-25T01:36:02.351Z,0.00
2018-12-25T01:37:02.312Z,0.00
2018-12-25T01:38:02.329Z,0.00
2018-12-25T01:39:02.335Z,0.00
2018-12-25T01:40:02.360Z,0.00
2018-12-25T01:41:02.371Z,0.00
2018-12-25T01:42:02.385Z,0.00
2018-12-25T01:43:02.404Z,0.00
2018-12-25T01:44:02.419Z,0.00
2018-12-25T01:45:02.430Z,0.00
2018-12-25T01:46:02.444Z,0.00
2018-12-25T01:47:02.471Z,0.00
2018-12-25T01:48:02.476Z,0.00
2018-12-25T01:49:02.499Z,0.00
2018-12-25T01:50:02.611Z,0.00
2018-12-25T01:51:02.523Z,0.00
2018-12-25T01:52:02.541Z,0.00
2018-12-25T01:53:02.555Z,0.00
2018-12-25T01:54:02.566Z,0.00
2018-12-25T01:55:02.587Z,0.00
2018-12-25T01:56:02.598Z,0.00
2018-12-25T01:57:02.610Z,0.00
2018-12-25T01:58:02.642Z,0.00
2018-12-25T01:59:02.647Z,0.00
2018-12-25T02:00:02.669Z,0.00
2018-12-25T02:01:02.677Z,0.00
2018-12-25T02:02:02.688Z,0.00
2018-12-25T02:03:02.708Z,0.00
2018-12-25T02:04:02.722Z,0.00
2018-12-25T02:05:02.744Z,0.00
2018-12-25T02:06:02.763Z,0.00
2018-12-25T02:07:02.770Z,0.00
2018-12-25T02:08:02.783Z,0.00
2018-12-25T02:09:02.801Z,0.00
2018-12-25T02:10:02.819Z,0.00
2018-12-25T02:11:02.851Z,0.00
2018-12-25T02:12:02.847Z,0.00
2018-12-25T02:13:02.862Z,0.00
2018-12-25T02:14:02.876Z,0.00
2018-12-25T02:15:02.918Z,0.00
2018-12-25T02:16:02.911Z,0.00
2018-12-25T02:17:02.927Z,0.00
2018-12-25T02:18:02.941Z,0.00
2018-12-25T02:19:02.959Z,0.00
2018-12-25T02:20:02.972Z,0.00
2018-12-25T02:21:02.987Z,0.00
2018-12-25T02:22:03.002Z,0.00
2018-12-25T02:23:03.021Z,0.00
2018-12-25T02:24:03.032Z,0.00
2018-12-25T02:25:03.049Z,0.00
2018-12-25T02:26:03.067Z,0.00
2018-12-25T02:27:03.084Z,0.00
2018-12-25T02:28:03.096Z,0.00
2018-12-25T02:29:03.113Z,0.00
2018-12-25T02:30:03.154Z,0.00
2018-12-25T02:31:03.161Z,0.00
2018-12-25T02:32:03.168Z,0.00
2018-12-25T02:33:03.191Z,0.00
2018-12-25T02:34:03.192Z,0.00
2018-12-25T02:35:03.216Z,0.00
2018-12-25T02:36:03.224Z,0.00
2018-12-25T02:37:03.247Z,0.00
2018-12-25T02:38:03.258Z,0.00
2018-12-25T02:39:03.278Z,0.00
2018-12-25T02:40:03.293Z,0.00
2018-12-25T02:41:03.325Z,0.00
2018-12-25T02:42:03.322Z,0.00
2018-12-25T02:43:03.338Z,0.00
2018-12-25T02:44:03.387Z,0.00
2018-12-25T02:45:03.379Z,0.00
2018-12-25T02:46:03.404Z,0.00
2018-12-25T02:47:03.397Z,0.00
2018-12-25T02:48:03.415Z,0.00
2018-12-25T02:49:03.435Z,0.00
2018-12-25T02:50:03.457Z,0.00
2018-12-25T02:51:03.466Z,0.00
2018-12-25T02:52:03.482Z,0.00
2018-12-25T02:53:03.498Z,0.00
2018-12-25T02:54:03.513Z,0.00
2018-12-25T02:55:03.540Z,0.00
2018-12-25T02:56:03.557Z,0.00
2018-12-25T02:57:03.571Z,0.00
2018-12-25T02:58:03.616Z,0.00
2018-12-25T02:59:03.605Z,0.00
2018-12-25T03:00:03.606Z,0.00
2018-12-25T03:01:03.622Z,0.00
2018-12-25T03:02:03.639Z,0.00
2018-12-25T03:03:03.655Z,0.00
2018-12-25T03:04:03.678Z,0.00
2018-12-25T03:05:03.692Z,0.00
2018-12-25T03:06:03.712Z,0.00
2018-12-25T03:07:03.718Z,0.00
2018-12-25T03:08:03.743Z,0.00
2018-12-25T03:09:03.767Z,0.00
2018-12-25T03:10:03.771Z,0.00
2018-12-25T03:11:03.784Z,0.00
2018-12-25T03:12:03.794Z,0.00
2018-12-25T03:13:03.813Z,0.00
2018-12-25T03:14:03.829Z,0.00
2018-12-25T03:15:03.842Z,0.00
2018-12-25T03:16:03.859Z,0.00
2018-12-25T03:17:03.879Z,0.00
2018-12-25T03:18:03.899Z,0.00
2018-12-25T03:19:03.916Z,0.00
2018-12-25T03:20:03.925Z,0.00
2018-12-25T03:21:03.937Z,0.00
2018-12-25T03:22:03.950Z,0.00
2018-12-25T03:23:03.967Z,0.00
2018-12-25T03:24:03.982Z,0.00
2018-12-25T03:25:03.994Z,0.00
2018-12-25T03:26:04.016Z,0.00
2018-12-25T03:27:04.028Z,0.00
2018-12-25T03:28:04.041Z,0.00
2018-12-25T03:29:04.066Z,0.00
2018-12-25T03:30:04.080Z,0.00
2018-12-25T03:31:04.094Z,0.00
2018-12-25T03:32:04.108Z,0.00
2018-12-25T03:33:04.129Z,0.00
2018-12-25T03:34:04.161Z,0.00
2018-12-25T03:35:04.153Z,0.00
2018-12-25T03:36:04.174Z,0.00
2018-12-25T03:37:04.188Z,0.00
2018-12-25T03:38:04.201Z,0.00
2018-12-25T03:39:04.232Z,0.00
2018-12-25T03:40:04.234Z,0.00
2018-12-25T03:41:04.252Z,0.00
2018-12-25T03:42:04.271Z,0.00
2018-12-25T03:43:04.288Z,0.00
2018-12-25T03:44:04.312Z,0.00
2018-12-25T03:45:04.321Z,0.00
2018-12-25T03:46:04.324Z,0.00
2018-12-25T03:47:04.346Z,0.00
2018-12-25T03:48:04.373Z,0.00
2018-12-25T03:49:04.373Z,0.00
2018-12-25T03:50:10.568Z,0.00
2018-12-25T03:51:04.413Z,0.00
2018-12-25T03:52:04.422Z,0.00
2018-12-25T03:53:04.450Z,0.00
2018-12-25T03:54:04.460Z,0.00
2018-12-25T03:55:04.491Z,0.00
2018-12-25T03:56:04.494Z,0.00
2018-12-25T03:57:04.510Z,0.00
2018-12-25T03:58:04.524Z,0.00
2018-12-25T03:59:04.548Z,0.00
2018-12-25T04:00:04.554Z,0.00
2018-12-25T04:01:04.572Z,0.00
2018-12-25T04:02:04.603Z,0.00
2018-12-25T04:03:04.615Z,0.00
2018-12-25T04:04:04.642Z,0.00
2018-12-25T04:05:04.637Z,0.00
2018-12-25T04:06:04.645Z,0.00
2018-12-25T04:07:04.673Z,0.00
2018-12-25T04:08:04.697Z,0.00
2018-12-25T04:09:04.693Z,0.00
2018-12-25T04:10:04.713Z,0.00
2018-12-25T04:11:04.725Z,0.00
2018-12-25T04:12:04.762Z,0.00
2018-12-25T04:13:04.778Z,0.00
2018-12-25T04:14:04.905Z,0.00
2018-12-25T04:15:04.784Z,0.00
2018-12-25T04:16:04.798Z,0.00
2018-12-25T04:17:04.847Z,0.00
2018-12-25T04:18:04.831Z,0.00
2018-12-25T04:19:04.859Z,0.00
2018-12-25T04:20:04.878Z,0.00
2018-12-25T04:21:04.898Z,0.00
2018-12-25T04:22:04.895Z,0.00
2018-12-25T04:23:04.911Z,0.00
2018-12-25T04:24:04.929Z,0.00
2018-12-25T04:25:04.944Z,0.00
2018-12-25T04:26:04.956Z,0.00
2018-12-25T04:27:04.978Z,0.00
2018-12-25T04:28:04.988Z,0.00
2018-12-25T04:29:05.007Z,0.00
2018-12-25T04:30:05.025Z,0.00
2018-12-25T04:31:05.036Z,0.00
2018-12-25T04:32:05.060Z,0.00
2018-12-25T04:33:05.069Z,0.00
2018-12-25T04:34:05.099Z,0.00
2018-12-25T04:35:05.104Z,0.00
2018-12-25T04:36:05.117Z,0.00
2018-12-25T04:37:05.129Z,0.00
2018-12-25T04:38:05.177Z,0.00
2018-12-25T04:39:05.178Z,0.00
2018-12-25T04:40:05.191Z,0.00
2018-12-25T04:41:05.217Z,0.00
2018-12-25T04:42:05.258Z,0.00
2018-12-25T04:43:05.227Z,0.00
2018-12-25T04:44:05.246Z,0.00
2018-12-25T04:45:05.261Z,0.00
2018-12-25T04:46:05.273Z,0.00
2018-12-25T04:47:05.287Z,0.00
2018-12-25T04:48:05.304Z,0.00
2018-12-25T04:49:05.326Z,0.00
2018-12-25T04:50:05.333Z,0.00
2018-12-25T04:51:05.349Z,0.00
2018-12-25T04:52:05.377Z,0.00
2018-12-25T04:53:05.377Z,0.00
2018-12-25T04:54:05.395Z,0.00
2018-12-25T04:55:05.423Z,0.00
2018-12-25T04:56:05.570Z,0.00
2018-12-25T04:57:05.446Z,0.00
2018-12-25T04:58:05.477Z,0.00
2018-12-25T04:59:05.471Z,0.00
2018-12-25T05:00:05.495Z,0.00
2018-12-25T05:01:05.549Z,0.00
2018-12-25T05:02:05.528Z,0.00
2018-12-25T05:03:05.538Z,0.00
2018-12-25T05:04:05.579Z,0.00
2018-12-25T05:05:05.571Z,0.00
2018-12-25T05:06:05.587Z,0.00
2018-12-25T05:07:05.602Z,0.00
2018-12-25T05:08:05.636Z,0.00
2018-12-25T05:09:05.654Z,0.00
2018-12-25T05:10:05.660Z,0.00
2018-12-25T05:11:05.669Z,0.00
2018-12-25T05:12:05.679Z,0.00
2018-12-25T05:13:05.694Z,0.00
2018-12-25T05:14:05.713Z,0.00
2018-12-25T05:15:05.746Z,0.00
2018-12-25T05:16:05.746Z,0.00
2018-12-25T05:17:05.757Z,0.00
2018-12-25T05:18:05.773Z,0.00
2018-12-25T05:19:05.789Z,0.00
2018-12-25T05:20:05.809Z,0.00
2018-12-25T05:21:05.821Z,0.00
2018-12-25T05:22:05.846Z,0.00
2018-12-25T05:23:05.868Z,0.00
2018-12-25T05:24:05.867Z,0.00
2018-12-25T05:25:05.894Z,0.00
2018-12-25T05:26:05.903Z,0.00
2018-12-25T05:27:05.922Z,0.00
2018-12-25T05:28:05.936Z,0.00
2018-12-25T05:29:05.959Z,0.00
2018-12-25T05:30:05.967Z,0.00
2018-12-25T05:31:05.984Z,0.00
2018-12-25T05:32:06.001Z,0.00
2018-12-25T05:33:06.022Z,0.00
2018-12-25T05:34:06.034Z,0.00
2018-12-25T05:35:06.045Z,0.00
2018-12-25T05:36:06.068Z,0.00
2018-12-25T05:37:06.074Z,0.00
2018-12-25T05:38:06.094Z,0.00
2018-12-25T05:39:06.118Z,0.00
2018-12-25T05:40:06.140Z,0.00
2018-12-25T05:41:06.154Z,0.00
2018-12-25T05:42:06.157Z,0.00
2018-12-25T05:43:06.186Z,0.00
2018-12-25T05:44:06.190Z,0.00
2018-12-25T05:45:06.219Z,0.00
2018-12-25T05:46:06.221Z,0.00
2018-12-25T05:47:06.243Z,0.00
2018-12-25T05:48:06.259Z,0.00
2018-12-25T05:49:06.267Z,0.00
2018-12-25T05:50:06.296Z,0.00
2018-12-25T05:51:06.317Z,0.00
2018-12-25T05:52:06.313Z,0.00
2018-12-25T05:53:06.330Z,0.00
2018-12-25T05:54:06.349Z,0.00
2018-12-25T05:55:06.371Z,0.00
2018-12-25T05:56:06.382Z,0.00
2018-12-25T05:57:06.399Z,0.00
2018-12-25T05:58:06.411Z,0.00
2018-12-25T05:59:06.434Z,0.00
2018-12-25T06:00:06.443Z,0.00
2018-12-25T06:01:06.465Z,0.00
2018-12-25T06:02:06.480Z,0.00
2018-12-25T06:03:06.491Z,0.00
2018-12-25T06:04:06.516Z,0.00
2018-12-25T06:05:06.523Z,0.00
2018-12-25T06:06:06.542Z,0.00
2018-12-25T06:07:06.551Z,0.00
2018-12-25T06:08:06.568Z,0.00
2018-12-25T06:09:06.588Z,0.00
2018-12-25T06:10:06.601Z,0.00
2018-12-25T06:11:06.635Z,0.00
2018-12-25T06:12:06.633Z,0.00
2018-12-25T06:13:06.651Z,0.00
2018-12-25T06:14:06.667Z,0.00
2018-12-25T06:15:06.682Z,0.00
2018-12-25T06:16:06.697Z,0.00
2018-12-25T06:17:06.716Z,0.00
2018-12-25T06:18:06.738Z,0.00
2018-12-25T06:19:06.745Z,0.00
2018-12-25T06:20:06.764Z,0.00
2018-12-25T06:21:06.778Z,0.00
2018-12-25T06:22:06.798Z,0.00
2018-12-25T06:23:06.817Z,0.00
2018-12-25T06:24:06.841Z,0.00
2018-12-25T06:25:06.846Z,0.00
2018-12-25T06:26:06.859Z,0.00
2018-12-25T06:27:06.877Z,0.00
2018-12-25T06:28:06.897Z,0.00
2018-12-25T06:29:06.909Z,0.00
2018-12-25T06:30:06.938Z,0.00
2018-12-25T06:31:06.938Z,0.00
2018-12-25T06:32:06.952Z,0.00
2018-12-25T06:33:07.004Z,0.00
2018-12-25T06:34:07.007Z,0.00
2018-12-25T06:35:07.000Z,0.00
2018-12-25T06:36:07.026Z,0.00
2018-12-25T06:37:07.035Z,0.00
2018-12-25T06:38:07.053Z,0.00
2018-12-25T06:39:07.125Z,0.00
2018-12-25T06:40:07.091Z,0.00
2018-12-25T06:41:07.099Z,0.00
2018-12-25T06:42:07.144Z,0.00
2018-12-25T06:43:07.129Z,0.00
2018-12-25T06:44:07.159Z,0.00
2018-12-25T06:45:07.165Z,0.00
2018-12-25T06:46:07.183Z,0.00
2018-12-25T06:47:07.206Z,0.00
2018-12-25T06:48:07.206Z,0.00
2018-12-25T06:49:07.233Z,4.00
2018-12-25T06:50:07.238Z,4.00
2018-12-25T06:51:07.262Z,4.00
2018-12-25T06:52:07.275Z,4.00
2018-12-25T06:53:07.288Z,4.00
2018-12-25T06:54:07.316Z,4.00
2018-12-25T06:55:07.325Z,4.00
2018-12-25T06:56:07.340Z,0.00
2018-12-25T06:57:07.354Z,4.00
2018-12-25T06:58:07.369Z,4.00
2018-12-25T06:59:07.386Z,4.00
2018-12-25T07:00:07.396Z,4.00
2018-12-25T07:01:07.411Z,8.00
2018-12-25T07:02:07.427Z,4.00
2018-12-25T07:03:07.456Z,8.00
2018-12-25T07:04:07.473Z,12.00
2018-12-25T07:05:07.477Z,8.00
2018-12-25T07:06:07.497Z,12.00
2018-12-25T07:07:07.512Z,8.00
2018-12-25T07:08:07.523Z,12.00
2018-12-25T07:09:07.539Z,12.00
2018-12-25T07:10:07.560Z,12.00
2018-12-25T07:11:07.583Z,16.00
2018-12-25T07:12:07.584Z,16.00
2018-12-25T07:13:07.751Z,20.00
2018-12-25T07:14:07.623Z,20.00
2018-12-25T07:15:07.641Z,24.00
2018-12-25T07:16:07.654Z,32.00
2018-12-25T07:17:07.665Z,40.00
2018-12-25T07:18:07.682Z,48.00
2018-12-25T07:19:07.698Z,52.00
2018-12-25T07:20:07.739Z,56.00
2018-12-25T07:21:12.112Z,60.00
2018-12-25T07:22:07.753Z,64.00
2018-12-25T07:23:07.778Z,80.00
2018-12-25T07:24:07.788Z,88.00
2018-12-25T07:25:07.799Z,96.00
2018-12-25T07:26:07.822Z,108.00
2018-12-25T07:27:07.895Z,108.00
2018-12-25T07:28:07.847Z,96.00
2018-12-25T07:29:07.876Z,84.00
2018-12-25T07:30:07.890Z,76.00
2018-12-25T07:31:07.994Z,72.00
2018-12-25T07:32:07.914Z,68.00
2018-12-25T07:33:07.934Z,64.00
2018-12-25T07:34:07.944Z,64.00
2018-12-25T07:35:07.965Z,72.00
2018-12-25T07:36:09.522Z,76.00
2018-12-25T07:37:07.994Z,76.00
2018-12-25T07:38:08.006Z,92.00
2018-12-25T07:39:08.026Z,96.00
2018-12-25T07:40:08.039Z,112.00
2018-12-25T07:41:08.060Z,148.00
2018-12-25T07:42:08.076Z,176.00
2018-12-25T07:43:08.082Z,212.00
2018-12-25T07:44:08.118Z,244.00
2018-12-25T07:45:08.121Z,264.00
2018-12-25T07:46:08.134Z,272.00
2018-12-25T07:47:08.152Z,264.00
2018-12-25T07:48:08.167Z,268.00
2018-12-25T07:49:08.179Z,280.00
2018-12-25T07:50:08.202Z,316.00
2018-12-25T07:51:08.223Z,324.00
2018-12-25T07:52:08.267Z,332.00
2018-12-25T07:53:08.266Z,352.00
2018-12-25T07:54:08.265Z,336.00
2018-12-25T07:55:08.318Z,304.00
2018-12-25T07:56:08.296Z,280.00
2018-12-25T07:57:08.310Z,252.00
2018-12-25T07:58:08.332Z,272.00
2018-12-25T07:59:08.345Z,328.00
2018-12-25T08:00:08.356Z,352.00
2018-12-25T08:01:08.382Z,344.00
2018-12-25T08:02:08.403Z,352.00
2018-12-25T08:03:08.407Z,400.00
2018-12-25T08:04:08.423Z,432.00
2018-12-25T08:05:08.446Z,476.00
2018-12-25T08:06:08.460Z,492.00
2018-12-25T08:07:08.471Z,576.00
2018-12-25T08:08:08.493Z,716.00
2018-12-25T08:09:08.508Z,748.00
2018-12-25T08:10:08.526Z,708.00
2018-12-25T08:11:08.543Z,708.00
2018-12-25T08:12:08.568Z,708.00
2018-12-25T08:13:08.570Z,824.00
2018-12-25T08:14:08.616Z,928.00
2018-12-25T08:15:08.688Z,928.00
2018-12-25T08:16:08.644Z,780.00
2018-12-25T08:17:08.637Z,680.00
2018-12-25T08:18:08.656Z,500.00
2018-12-25T08:19:08.735Z,452.00
2018-12-25T08:20:08.691Z,492.00
2018-12-25T08:21:08.718Z,516.00
2018-12-25T08:22:08.789Z,596.00
2018-12-25T08:23:08.748Z,700.00
2018-12-25T08:24:08.810Z,800.00
2018-12-25T08:25:08.774Z,852.00
2018-12-25T08:26:08.838Z,976.00
2018-12-25T08:27:08.839Z,1104.00
2018-12-25T08:28:08.873Z,1156.00
2018-12-25T08:29:08.845Z,1108.00
2018-12-25T08:30:08.858Z,1172.00
2018-12-25T08:31:08.913Z,1280.00
2018-12-25T08:32:08.880Z,1264.00
2018-12-25T08:33:08.988Z,1292.00
2018-12-25T08:34:08.915Z,1148.00
2018-12-25T08:35:08.941Z,976.00
2018-12-25T08:36:08.973Z,980.00
2018-12-25T08:37:09.038Z,980.00
2018-12-25T08:38:08.987Z,984.00
2018-12-25T08:39:09.008Z,1080.00
2018-12-25T08:40:09.016Z,1208.00
2018-12-25T08:41:09.026Z,1216.00
2018-12-25T08:42:09.065Z,1232.00
2018-12-25T08:43:09.065Z,1300.00
2018-12-25T08:44:09.076Z,1352.00
2018-12-25T08:45:09.094Z,1376.00
2018-12-25T08:46:09.121Z,1284.00
2018-12-25T08:47:09.132Z,1344.00
2018-12-25T08:48:09.139Z,1588.00
2018-12-25T08:49:09.165Z,1720.00
2018-12-25T08:50:09.177Z,1808.00
2018-12-25T08:51:09.190Z,1792.00
2018-12-25T08:52:09.218Z,1940.00
2018-12-25T08:53:09.235Z,1968.00
2018-12-25T08:54:09.303Z,1996.00
2018-12-25T08:55:09.259Z,2048.00
2018-12-25T08:56:09.270Z,2148.00
2018-12-25T08:57:09.298Z,2156.00
2018-12-25T08:58:09.311Z,2172.00
2018-12-25T08:59:09.321Z,2160.00
2018-12-25T09:00:09.355Z,2084.00
2018-12-25T09:01:09.390Z,2088.00
2018-12-25T09:02:09.389Z,2028.00
2018-12-25T09:03:09.398Z,1900.00
2018-12-25T09:04:09.450Z,1788.00
2018-12-25T09:05:09.430Z,1744.00
2018-12-25T09:06:09.476Z,1676.00
2018-12-25T09:07:09.467Z,1628.00
2018-12-25T09:08:09.485Z,1604.00
2018-12-25T09:09:09.501Z,1584.00
2018-12-25T09:10:09.530Z,1620.00
2018-12-25T09:11:09.525Z,1732.00
2018-12-25T09:12:09.535Z,1808.00
2018-12-25T09:13:09.564Z,1780.00
2018-12-25T09:14:09.573Z,1628.00
2018-12-25T09:15:09.604Z,1640.00
2018-12-25T09:16:09.611Z,1728.00
2018-12-25T09:17:09.617Z,1804.00
2018-12-25T09:18:09.646Z,1844.00
2018-12-25T09:19:09.656Z,1916.00
2018-12-25T09:20:09.676Z,1968.00
2018-12-25T09:21:09.682Z,1944.00
2018-12-25T09:22:09.701Z,1944.00
2018-12-25T09:23:09.722Z,1988.00
2018-12-25T09:24:09.731Z,2036.00
2018-12-25T09:25:10.730Z,2160.00
2018-12-25T09:26:09.771Z,2392.00
2018-12-25T09:27:09.796Z,2640.00
2018-12-25T09:28:09.805Z,2664.00
2018-12-25T09:29:09.828Z,2532.00
2018-12-25T09:30:09.842Z,2352.00
2018-12-25T09:31:09.856Z,2304.00
2018-12-25T09:32:09.869Z,2248.00
2018-12-25T09:33:09.883Z,2232.00
2018-12-25T09:34:09.904Z,2312.00
2018-12-25T09:35:09.928Z,2432.00
2018-12-25T09:36:09.968Z,2436.00
2018-12-25T09:37:09.950Z,2344.00
2018-12-25T09:38:09.978Z,2268.00
2018-12-25T09:39:09.998Z,2372.00
2018-12-25T09:40:10.003Z,2408.00
2018-12-25T09:41:10.018Z,2356.00
2018-12-25T09:42:10.039Z,2312.00
2018-12-25T09:43:10.089Z,2364.00
2018-12-25T09:44:10.071Z,2460.00
2018-12-25T09:45:10.101Z,2516.00
2018-12-25T09:46:10.118Z,2620.00
2018-12-25T09:47:10.153Z,2676.00
2018-12-25T09:48:13.402Z,2584.00
2018-12-25T09:49:10.159Z,2576.00
2018-12-25T09:50:10.165Z,2656.00
2018-12-25T09:51:10.189Z,2788.00
2018-12-25T09:52:10.200Z,3028.00
2018-12-25T09:53:10.221Z,3104.00
2018-12-25T09:54:10.240Z,2920.00
2018-12-25T09:55:10.271Z,2808.00
2018-12-25T09:56:10.274Z,2828.00
2018-12-25T09:57:10.293Z,2916.00
2018-12-25T09:58:10.314Z,2960.00
2018-12-25T09:59:10.319Z,3164.00
2018-12-25T10:00:10.351Z,3448.00
2018-12-25T10:01:10.353Z,3688.00
2018-12-25T10:02:10.372Z,3764.00
2018-12-25T10:03:10.386Z,3928.00
2018-12-25T10:04:10.419Z,4016.00
2018-12-25T10:05:10.443Z,4092.00
2018-12-25T10:06:10.439Z,4148.00
2018-12-25T10:07:10.455Z,4180.00
2018-12-25T10:08:10.491Z,4176.00
2018-12-25T10:09:10.527Z,4248.00
2018-12-25T10:10:10.509Z,4212.00
2018-12-25T10:11:10.517Z,4268.00
2018-12-25T10:12:10.546Z,4200.00
2018-12-25T10:13:10.567Z,4092.00
2018-12-25T10:14:10.571Z,4096.00
2018-12-25T10:15:10.623Z,4080.00
2018-12-25T10:16:10.607Z,4072.00
2018-12-25T10:17:10.635Z,4024.00
2018-12-25T10:18:10.646Z,4076.00
2018-12-25T10:19:10.668Z,3944.00
2018-12-25T10:20:10.678Z,3780.00
2018-12-25T10:21:10.713Z,3772.00
2018-12-25T10:22:10.706Z,3640.00
2018-12-25T10:23:10.726Z,3588.00
2018-12-25T10:24:10.745Z,3584.00
2018-12-25T10:25:10.767Z,3568.00
2018-12-25T10:26:10.786Z,3624.00
2018-12-25T10:27:10.789Z,3784.00
2018-12-25T10:28:10.826Z,3892.00
2018-12-25T10:29:10.831Z,4080.00
2018-12-25T10:30:10.857Z,3952.00
2018-12-25T10:31:10.873Z,3908.00
2018-12-25T10:32:11.014Z,3896.00
2018-12-25T10:33:10.917Z,3848.00
2018-12-25T10:34:10.909Z,3784.00
2018-12-25T10:35:10.931Z,3752.00
2018-12-25T10:36:10.962Z,3548.00
2018-12-25T10:37:10.964Z,3728.00
2018-12-25T10:38:10.988Z,3944.00
2018-12-25T10:39:11.004Z,3800.00
2018-12-25T10:40:11.009Z,3724.00
2018-12-25T10:41:11.034Z,3868.00
2018-12-25T10:42:11.063Z,3912.00
2018-12-25T10:43:11.079Z,3828.00
2018-12-25T10:44:11.089Z,3616.00
2018-12-25T10:45:11.141Z,3360.00
2018-12-25T10:46:11.119Z,3256.00
2018-12-25T10:47:11.137Z,3228.00
2018-12-25T10:48:11.152Z,3212.00
2018-12-25T10:49:11.172Z,3172.00
2018-12-25T10:50:11.290Z,3152.00
2018-12-25T10:51:11.199Z,3428.00
2018-12-25T10:52:11.795Z,3620.00
2018-12-25T10:53:11.234Z,3592.00
2018-12-25T10:54:11.254Z,3672.00
2018-12-25T10:55:11.270Z,3828.00
2018-12-25T10:56:11.286Z,3972.00
2018-12-25T10:57:11.355Z,4004.00
2018-12-25T10:58:11.333Z,4032.00
2018-12-25T10:59:11.350Z,4168.00
2018-12-25T11:00:11.359Z,4208.00
2018-12-25T11:01:11.378Z,4176.00
2018-12-25T11:02:11.396Z,4104.00
2018-12-25T11:03:13.093Z,4136.00
2018-12-25T11:04:11.453Z,4080.00
2018-12-25T11:05:11.461Z,4008.00
2018-12-25T11:06:11.465Z,3924.00
2018-12-25T11:07:11.497Z,3832.00
2018-12-25T11:08:11.498Z,3808.00
2018-12-25T11:09:11.521Z,3896.00
2018-12-25T11:10:11.537Z,4036.00
2018-12-25T11:11:11.554Z,4148.00
2018-12-25T11:12:11.564Z,4188.00
2018-12-25T11:13:11.591Z,4144.00
2018-12-25T11:14:11.601Z,4080.00
2018-12-25T11:15:11.630Z,3888.00
2018-12-25T11:16:11.629Z,3920.00
2018-12-25T11:17:11.649Z,3968.00
2018-12-25T11:18:11.665Z,3876.00
2018-12-25T11:19:11.688Z,3800.00
2018-12-25T11:20:11.881Z,3580.00
2018-12-25T11:21:11.775Z,3488.00
2018-12-25T11:22:19.689Z,3360.00
2018-12-25T11:23:11.753Z,3224.00
2018-12-25T11:24:11.768Z,3252.00
2018-12-25T11:25:11.800Z,3236.00
2018-12-25T11:26:11.807Z,3196.00
2018-12-25T11:27:11.825Z,3128.00
2018-12-25T11:28:11.881Z,3140.00
2018-12-25T11:29:11.913Z,3280.00
2018-12-25T11:30:11.914Z,3364.00
2018-12-25T11:31:11.915Z,3356.00
2018-12-25T11:32:11.924Z,3392.00
2018-12-25T11:33:11.956Z,3464.00
2018-12-25T11:34:11.945Z,3360.00
2018-12-25T11:35:11.961Z,3176.00
2018-12-25T11:36:11.975Z,2972.00
2018-12-25T11:37:11.996Z,3020.00
2018-12-25T11:38:12.018Z,3132.00
2018-12-25T11:39:12.029Z,3284.00
2018-12-25T11:40:12.044Z,3276.00
2018-12-25T11:41:12.092Z,3296.00
2018-12-25T11:42:12.105Z,3276.00
2018-12-25T11:43:12.096Z,3288.00
2018-12-25T11:44:12.132Z,3360.00
2018-12-25T11:45:12.138Z,3336.00
2018-12-25T11:46:12.194Z,3176.00
2018-12-25T11:47:12.205Z,3312.00
2018-12-25T11:48:12.194Z,3544.00
2018-12-25T11:49:12.215Z,3536.00
2018-12-25T11:50:12.220Z,3332.00
2018-12-25T11:51:12.246Z,3524.00
2018-12-25T11:52:12.259Z,3576.00
2018-12-25T11:53:12.287Z,3304.00
2018-12-25T11:54:12.296Z,3340.00
2018-12-25T11:55:12.309Z,3568.00
2018-12-25T11:56:12.325Z,3588.00
2018-12-25T11:57:12.390Z,3348.00
2018-12-25T11:58:12.372Z,3464.00
2018-12-25T11:59:12.378Z,3492.00
2018-12-25T12:00:12.396Z,3196.00
2018-12-25T12:01:12.416Z,3172.00
2018-12-25T12:02:16.997Z,2996.00
2018-12-25T12:03:12.444Z,3084.00
2018-12-25T12:04:12.463Z,2648.00
2018-12-25T12:05:12.480Z,2312.00
2018-12-25T12:06:12.508Z,2316.00
2018-12-25T12:07:12.518Z,2352.00
2018-12-25T12:08:12.555Z,2344.00
2018-12-25T12:09:12.556Z,2340.00
2018-12-25T12:10:12.577Z,2120.00
2018-12-25T12:11:12.584Z,2044.00
2018-12-25T12:12:12.605Z,2148.00
2018-12-25T12:13:12.633Z,2108.00
2018-12-25T12:14:12.637Z,1836.00
2018-12-25T12:15:12.662Z,1804.00
2018-12-25T12:16:12.677Z,1804.00
2018-12-25T12:17:12.707Z,2060.00
2018-12-25T12:18:12.711Z,2092.00
2018-12-25T12:19:12.723Z,1948.00
2018-12-25T12:20:12.751Z,1840.00
2018-12-25T12:21:12.763Z,1976.00
2018-12-25T12:22:12.780Z,1912.00
2018-12-25T12:23:12.803Z,1884.00
2018-12-25T12:24:12.814Z,1740.00
2018-12-25T12:25:12.844Z,1704.00
2018-12-25T12:26:12.872Z,1676.00
2018-12-25T12:27:12.878Z,1872.00
2018-12-25T12:28:12.896Z,1860.00
2018-12-25T12:29:12.912Z,1808.00
2018-12-25T12:30:12.919Z,1904.00
2018-12-25T12:31:12.940Z,1908.00
2018-12-25T12:32:12.973Z,1904.00
2018-12-25T12:33:12.982Z,2020.00
2018-12-25T12:34:12.982Z,1984.00
2018-12-25T12:35:13.010Z,2148.00
2018-12-25T12:36:13.029Z,2156.00
2018-12-25T12:37:13.037Z,2104.00
2018-12-25T12:38:13.060Z,2080.00
2018-12-25T12:39:13.073Z,1968.00
2018-12-25T12:40:13.098Z,2152.00
2018-12-25T12:41:13.111Z,1964.00
2018-12-25T12:42:13.134Z,2044.00
2018-12-25T12:43:13.140Z,2272.00
2018-12-25T12:44:13.162Z,2204.00
2018-12-25T12:45:13.180Z,2052.00
2018-12-25T12:46:13.226Z,1976.00
2018-12-25T12:47:13.216Z,1840.00
2018-12-25T12:48:13.229Z,1928.00